Time;durP1;ratioP1;P1;durP2;ratioP2;P2;SDS_P1;SDS_P2;PMS_P1;PMS_P2;Temp;Humidity;BMP_temperature;BMP_pressure;BME280_temperature;BME280_humidity;BME280_pressure;Samples;Min_cycle;Max_cycle;Signal;HPM_P1;HPM_P2
2022/04/06 00:02:22;;;;;;;6.00;4.80;;;8.90;99.90;;;;;;5052474;28;20205;-68
2022/04/06 00:04:49;;;;;;;5.22;4.72;;;8.90;99.90;;;;;;5052305;28;20205;-69
2022/04/06 00:07:16;;;;;;;5.65;4.97;;;8.90;99.90;;;;;;5051954;28;20233;-69
2022/04/06 00:09:43;;;;;;;4.68;4.28;;;8.90;99.90;;;;;;5051695;28;20615;-69
2022/04/06 00:12:10;;;;;;;6.70;5.43;;;8.90;99.90;;;;;;5052478;28;20220;-69
2022/04/06 00:14:37;;;;;;;6.18;4.95;;;8.90;99.90;;;;;;5051896;28;20204;-69
2022/04/06 00:17:07;;;;;;;4.93;4.50;;;9.00;99.90;;;;;;5051834;28;20224;-69
2022/04/06 00:19:35;;;;;;;6.00;5.40;;;8.90;99.90;;;;;;5052235;28;20197;-69
2022/04/06 00:22:03;;;;;;;5.05;4.55;;;8.90;99.90;;;;;;5052118;28;20197;-69
2022/04/06 00:24:30;;;;;;;5.07;4.57;;;8.90;99.90;;;;;;5052093;28;20209;-69
2022/04/06 00:26:56;;;;;;;5.20;4.70;;;8.90;99.90;;;;;;5051365;28;20225;-69
2022/04/06 00:29:23;;;;;;;5.18;4.30;;;8.90;99.90;;;;;;5052194;28;20213;-69
2022/04/06 00:31:50;;;;;;;5.43;4.93;;;8.90;99.90;;;;;;5051670;28;20274;-69
2022/04/06 00:34:18;;;;;;;7.72;5.45;;;8.90;99.90;;;;;;5051935;28;20201;-69
2022/04/06 00:36:45;;;;;;;4.93;4.43;;;8.90;99.90;;;;;;5051058;28;20221;-69
2022/04/06 00:39:12;;;;;;;4.82;4.32;;;8.90;99.90;;;;;;5051685;28;20227;-69
2022/04/06 00:41:39;;;;;;;6.25;5.10;;;8.90;99.90;;;;;;5051734;28;20707;-69
2022/04/06 00:44:10;;;;;;;5.50;5.00;;;9.00;99.90;;;;;;5051875;28;20197;-69
2022/04/06 00:46:37;;;;;;;5.05;4.45;;;9.00;99.90;;;;;;5050756;28;20221;-69
2022/04/06 00:49:04;;;;;;;5.00;4.50;;;8.90;99.90;;;;;;5051688;28;20201;-69
2022/04/06 00:51:33;;;;;;;5.45;4.50;;;8.90;99.90;;;;;;5051208;28;20221;-69
2022/04/06 00:54:00;;;;;;;5.78;4.50;;;8.80;99.90;;;;;;5051758;28;20201;-69
2022/04/06 00:56:27;;;;;;;5.45;4.57;;;8.80;99.90;;;;;;5051402;28;20576;-69
2022/04/06 00:58:53;;;;;;;4.80;4.25;;;8.80;99.90;;;;;;5050649;28;20205;-69
2022/04/06 01:01:20;;;;;;;5.00;4.50;;;8.80;99.90;;;;;;5051580;28;20583;-69
2022/04/06 01:03:47;;;;;;;5.50;5.00;;;8.80;99.90;;;;;;5050850;28;20300;-68
2022/04/06 01:06:14;;;;;;;4.70;4.30;;;8.80;99.90;;;;;;5051214;28;20225;-69
2022/04/06 01:08:42;;;;;;;5.50;5.00;;;8.80;99.90;;;;;;5051163;28;20201;-69
2022/04/06 01:11:09;;;;;;;5.00;4.50;;;8.80;99.90;;;;;;5051003;28;20208;-69
2022/04/06 01:13:36;;;;;;;5.72;5.10;;;8.70;99.90;;;;;;5051103;28;20204;-69
2022/04/06 01:16:03;;;;;;;4.93;4.43;;;8.70;99.90;;;;;;5050954;28;20228;-69
2022/04/06 01:18:32;;;;;;;4.72;4.32;;;8.80;99.90;;;;;;5050770;28;20207;-69
2022/04/06 01:20:58;;;;;;;6.25;4.55;;;8.70;99.90;;;;;;5050695;28;20200;-69
2022/04/06 01:23:26;;;;;;;5.10;4.70;;;8.80;99.90;;;;;;5050875;28;20571;-69
2022/04/06 01:25:53;;;;;;;6.30;4.85;;;8.80;99.90;;;;;;5050737;28;20221;-69
2022/04/06 01:28:20;;;;;;;5.95;4.70;;;8.80;99.90;;;;;;5050134;28;20212;-69
2022/04/06 01:30:46;;;;;;;6.35;5.63;;;8.80;99.90;;;;;;5050680;28;20209;-69
2022/04/06 01:33:13;;;;;;;5.78;5.25;;;8.80;99.90;;;;;;5050677;28;20704;-69
2022/04/06 01:35:42;;;;;;;5.60;5.10;;;8.80;99.90;;;;;;5050016;28;20228;-69
2022/04/06 01:38:09;;;;;;;6.47;4.93;;;8.80;99.90;;;;;;5050282;28;20205;-68
2022/04/06 01:40:37;;;;;;;5.68;4.47;;;8.80;99.90;;;;;;5050280;28;20575;-69
2022/04/06 01:43:03;;;;;;;5.38;4.88;;;8.80;99.90;;;;;;5050815;28;20560;-69
2022/04/06 01:45:30;;;;;;;4.75;4.25;;;8.80;99.90;;;;;;5050602;28;20274;-69
2022/04/06 01:47:57;;;;;;;5.82;4.38;;;8.80;99.90;;;;;;5049563;28;20209;-69
2022/04/06 01:53:09;;;;;;;5.15;4.65;;;8.80;99.90;;;;;;5050302;28;20235;-69
2022/04/06 01:55:37;;;;;;;5.25;4.75;;;8.80;99.90;;;;;;5050360;28;20228;-69
2022/04/06 01:58:03;;;;;;;5.25;4.72;;;8.80;99.90;;;;;;5049890;28;20571;-68
2022/04/06 02:00:30;;;;;;;4.70;4.20;;;8.80;99.90;;;;;;5050175;28;20204;-69
2022/04/06 02:02:57;;;;;;;5.30;4.80;;;8.80;99.90;;;;;;5050412;28;20216;-69
2022/04/06 02:05:24;;;;;;;6.22;4.78;;;8.80;99.90;;;;;;5049986;28;20231;-69
2022/04/06 02:07:51;;;;;;;4.55;4.05;;;8.80;99.90;;;;;;5049565;28;20197;-69
2022/04/06 02:10:18;;;;;;;5.53;5.05;;;8.80;99.90;;;;;;5050371;28;20208;-69
2022/04/06 02:12:47;;;;;;;5.03;4.50;;;8.70;99.90;;;;;;5049940;28;20267;-69
2022/04/06 02:15:14;;;;;;;6.53;4.70;;;8.70;99.90;;;;;;5050314;28;20201;-69
2022/04/06 02:17:42;;;;;;;5.05;4.55;;;8.70;99.90;;;;;;5048057;28;20208;-69
2022/04/06 02:20:10;;;;;;;9.25;4.90;;;8.80;99.90;;;;;;5028792;28;20228;-69
2022/04/06 02:22:37;;;;;;;5.40;4.82;;;8.80;99.90;;;;;;5029569;28;20198;-69
2022/04/06 02:25:04;;;;;;;5.00;4.50;;;8.80;99.90;;;;;;5025968;28;20686;-69
2022/04/06 02:27:31;;;;;;;5.30;4.80;;;8.80;99.90;;;;;;5029320;28;20208;-68
2022/04/06 02:29:59;;;;;;;5.28;4.78;;;8.80;99.90;;;;;;5030064;28;20202;-69
2022/04/06 02:32:26;;;;;;;5.65;5.15;;;8.70;99.90;;;;;;5032626;28;20222;-69
2022/04/06 02:34:53;;;;;;;6.35;5.20;;;8.80;99.90;;;;;;5033720;28;20228;-69
2022/04/06 02:37:19;;;;;;;5.00;4.40;;;8.80;99.90;;;;;;5033756;28;20226;-69
2022/04/06 02:39:49;;;;;;;6.18;5.57;;;8.80;99.90;;;;;;5034065;28;20205;-69
2022/04/06 02:42:16;;;;;;;5.32;4.82;;;8.80;99.90;;;;;;5034000;28;20572;-69
2022/04/06 02:44:42;;;;;;;7.00;5.50;;;8.70;99.90;;;;;;5035300;28;20206;-69
2022/04/06 02:47:10;;;;;;;6.72;5.93;;;8.80;99.90;;;;;;5033744;28;20226;-69
2022/04/06 02:49:37;;;;;;;6.03;5.43;;;8.80;99.90;;;;;;5033792;28;20201;-69
2022/04/06 02:52:05;;;;;;;6.75;5.25;;;8.80;99.90;;;;;;5033585;28;20717;-69
2022/04/06 02:54:31;;;;;;;5.93;5.35;;;8.80;99.90;;;;;;5033804;28;20206;-68
2022/04/06 02:56:58;;;;;;;5.35;4.85;;;8.80;99.90;;;;;;5033293;28;20226;-68
2022/04/06 02:59:25;;;;;;;5.75;5.25;;;8.70;99.90;;;;;;5033655;28;20206;-69
2022/04/06 03:01:51;;;;;;;7.28;5.50;;;8.70;99.90;;;;;;5033679;28;20263;-69
2022/04/06 03:04:19;;;;;;;5.60;5.10;;;8.80;99.90;;;;;;5033441;28;20208;-69
2022/04/06 03:06:46;;;;;;;5.85;5.25;;;8.70;99.90;;;;;;5032851;28;20720;-69
2022/04/06 03:09:13;;;;;;;5.90;5.35;;;8.70;99.90;;;;;;5033513;28;20582;-69
2022/04/06 03:11:39;;;;;;;5.82;5.20;;;8.80;99.90;;;;;;5033529;28;20202;-68
2022/04/06 03:14:06;;;;;;;5.15;4.65;;;8.80;99.90;;;;;;5033633;28;20225;-68
2022/04/06 03:16:33;;;;;;;6.63;6.03;;;8.70;99.90;;;;;;5032889;28;20249;-68
2022/04/06 03:19:00;;;;;;;5.60;5.10;;;8.80;99.90;;;;;;5033302;28;20292;-69
2022/04/06 03:21:28;;;;;;;6.50;5.85;;;8.70;99.90;;;;;;5033149;28;20680;-69
2022/04/06 03:23:54;;;;;;;6.88;5.50;;;8.70;99.90;;;;;;5033183;28;20225;-69
2022/04/06 03:26:21;;;;;;;6.00;5.43;;;8.60;99.90;;;;;;5033107;28;20225;-69
2022/04/06 03:28:48;;;;;;;5.18;4.68;;;8.60;99.90;;;;;;5032478;28;20620;-69
2022/04/06 03:31:15;;;;;;;8.25;5.45;;;8.60;99.90;;;;;;5029567;28;20198;-69
2022/04/06 03:33:41;;;;;;;6.63;6.03;;;8.60;99.90;;;;;;5022646;28;20231;-69
2022/04/06 03:36:08;;;;;;;6.18;5.57;;;8.70;99.90;;;;;;5022040;28;20253;-69
2022/04/06 03:38:36;;;;;;;5.40;4.90;;;8.60;99.90;;;;;;5020005;28;20201;-69
2022/04/06 03:41:03;;;;;;;5.65;5.15;;;8.60;99.90;;;;;;5021317;28;20195;-69
2022/04/06 03:43:30;;;;;;;6.70;5.47;;;8.70;99.90;;;;;;5021072;28;20194;-69
2022/04/06 03:45:57;;;;;;;6.18;5.28;;;8.70;99.90;;;;;;5022444;28;20220;-69
2022/04/06 03:48:24;;;;;;;7.07;5.60;;;8.70;99.90;;;;;;5020563;28;20229;-69
2022/04/06 03:50:50;;;;;;;5.65;5.15;;;8.70;99.90;;;;;;5021064;28;20194;-69
2022/04/06 03:53:17;;;;;;;5.10;4.60;;;8.70;99.90;;;;;;5022762;28;20305;-69
2022/04/06 03:55:46;;;;;;;6.40;5.70;;;8.80;99.90;;;;;;5011808;28;20718;-69
2022/04/06 03:58:12;;;;;;;5.80;5.20;;;8.80;99.90;;;;;;5011770;28;20195;-69
2022/04/06 04:00:39;;;;;;;4.97;4.57;;;8.70;99.90;;;;;;5012513;28;20195;-69
2022/04/06 04:03:06;;;;;;;6.00;5.40;;;8.70;99.90;;;;;;5012349;28;20198;-69
2022/04/06 04:05:33;;;;;;;5.30;4.80;;;8.70;99.90;;;;;;5020675;28;20645;-67
2022/04/06 04:08:00;;;;;;;6.07;5.30;;;8.70;99.90;;;;;;5021895;28;20654;-67
2022/04/06 04:10:27;;;;;;;13.73;5.53;;;8.70;99.90;;;;;;5019788;28;20573;-68
2022/04/06 04:12:55;;;;;;;7.25;5.20;;;8.70;99.90;;;;;;5021688;28;20245;-70
2022/04/06 04:15:22;;;;;;;6.15;5.63;;;8.70;99.90;;;;;;5020200;28;20217;-68
2022/04/06 04:17:49;;;;;;;6.15;4.97;;;8.70;99.90;;;;;;5020406;28;20198;-67
2022/04/06 04:20:15;;;;;;;5.55;5.05;;;8.70;99.90;;;;;;5021985;28;20198;-68
2022/04/06 04:22:42;;;;;;;6.80;5.00;;;8.70;99.90;;;;;;5020121;28;20195;-68
2022/04/06 04:25:10;;;;;;;6.43;5.45;;;8.70;99.90;;;;;;5132888;22;20348;-73
2022/04/06 04:27:37;;;;;;;6.50;5.40;;;8.70;99.90;;;;;;5042350;28;20495;-73
2022/04/06 04:30:06;;;;;;;5.20;4.70;;;8.70;99.90;;;;;;5043162;28;20200;-73
2022/04/06 04:32:33;;;;;;;7.53;5.38;;;8.70;99.90;;;;;;5031375;28;20225;-73
2022/04/06 04:35:01;;;;;;;5.22;4.78;;;8.70;99.90;;;;;;5031798;28;20202;-73
2022/04/06 04:37:27;;;;;;;7.95;4.95;;;8.70;99.90;;;;;;5031019;28;20222;-73
2022/04/06 04:39:54;;;;;;;6.00;5.00;;;8.70;99.90;;;;;;5031879;28;20209;-72
2022/04/06 04:42:21;;;;;;;5.05;4.55;;;8.70;99.90;;;;;;5031697;28;20220;-72
2022/04/06 04:44:47;;;;;;;7.03;5.22;;;8.70;99.90;;;;;;5031597;28;20197;-72
2022/04/06 04:47:16;;;;;;;6.20;5.45;;;8.70;99.90;;;;;;5031044;28;20603;-73
2022/04/06 04:49:43;;;;;;;6.22;5.60;;;8.70;99.90;;;;;;5031437;28;20205;-72
2022/04/06 04:52:10;;;;;;;7.97;6.05;;;8.70;99.90;;;;;;5031676;28;20260;-72
2022/04/06 04:54:36;;;;;;;6.88;6.03;;;8.70;99.90;;;;;;5030514;28;20241;-73
2022/04/06 04:57:03;;;;;;;6.05;5.28;;;8.60;99.90;;;;;;5030597;28;20226;-72
2022/04/06 04:59:30;;;;;;;6.35;5.75;;;8.60;99.90;;;;;;5031059;28;20213;-72
2022/04/06 05:01:57;;;;;;;7.57;6.03;;;8.60;99.90;;;;;;5031475;28;20210;-72
2022/04/06 05:04:25;;;;;;;6.40;5.80;;;8.60;99.90;;;;;;5031160;28;20208;-72
2022/04/06 05:06:51;;;;;;;6.45;5.85;;;8.60;99.90;;;;;;5034641;28;20224;-72
2022/04/06 05:09:18;;;;;;;6.90;5.93;;;8.60;99.90;;;;;;5043610;28;20201;-72
2022/04/06 05:11:45;;;;;;;7.55;6.53;;;8.60;99.90;;;;;;5045405;28;20212;-73
2022/04/06 05:14:12;;;;;;;8.45;6.40;;;8.70;99.90;;;;;;5050911;28;20221;-74
2022/04/06 05:16:38;;;;;;;6.15;5.65;;;8.70;99.90;;;;;;5047877;28;20224;-72
2022/04/06 05:19:05;;;;;;;6.80;6.20;;;8.70;99.90;;;;;;5050661;28;20200;-74
2022/04/06 05:21:33;;;;;;;7.60;6.82;;;8.70;99.90;;;;;;5047060;28;20209;-72
2022/04/06 05:24:02;;;;;;;5.07;4.68;;;8.80;99.90;;;;;;5047257;28;20196;-73
2022/04/06 05:26:29;;;;;;;6.25;5.65;;;8.70;99.90;;;;;;5045102;28;20253;-73
2022/04/06 05:28:56;;;;;;;6.80;5.90;;;8.70;99.90;;;;;;5048710;28;20193;-73
2022/04/06 05:31:23;;;;;;;9.68;6.10;;;8.70;99.90;;;;;;5049616;28;20235;-74
2022/04/06 05:33:50;;;;;;;6.15;5.47;;;8.80;99.90;;;;;;5048901;28;20260;-75
2022/04/06 05:36:16;;;;;;;6.43;5.78;;;8.80;99.90;;;;;;5049061;28;20236;-74
2022/04/06 05:38:44;;;;;;;6.35;5.78;;;8.80;99.90;;;;;;5048667;28;20201;-74
2022/04/06 05:41:11;;;;;;;6.15;5.55;;;8.80;99.90;;;;;;5049693;28;20197;-75
2022/04/06 05:43:38;;;;;;;7.45;6.03;;;8.80;99.90;;;;;;5049760;28;20197;-74
2022/04/06 05:46:05;;;;;;;6.20;5.60;;;8.80;99.90;;;;;;5048238;28;20228;-74
2022/04/06 05:48:32;;;;;;;6.68;5.97;;;8.70;99.90;;;;;;5046033;28;20640;-74
2022/04/06 05:50:58;;;;;;;6.47;5.88;;;8.80;99.90;;;;;;5049343;28;20275;-74
2022/04/06 05:53:25;;;;;;;7.00;5.60;;;8.70;99.90;;;;;;5048961;28;20299;-74
2022/04/06 05:55:53;;;;;;;9.60;5.82;;;8.70;99.90;;;;;;5049358;28;20576;-74
2022/04/06 05:58:20;;;;;;;6.18;5.57;;;8.80;99.90;;;;;;5047549;28;20201;-74
2022/04/06 06:00:46;;;;;;;7.85;6.15;;;8.80;99.90;;;;;;5048508;28;20205;-73
2022/04/06 06:03:13;;;;;;;6.78;5.70;;;8.80;99.90;;;;;;5049564;28;20197;-73
2022/04/06 06:05:40;;;;;;;6.88;6.28;;;8.90;99.90;;;;;;5048320;28;20232;-74
2022/04/06 06:08:07;;;;;;;6.35;5.78;;;8.90;99.90;;;;;;5048437;28;20212;-73
2022/04/06 06:10:33;;;;;;;6.22;5.68;;;8.90;99.90;;;;;;5048468;28;20205;-74
2022/04/06 06:13:01;;;;;;;6.40;5.80;;;9.00;99.90;;;;;;5048669;28;20215;-73
2022/04/06 06:15:28;;;;;;;7.55;6.15;;;9.00;99.90;;;;;;5047783;28;20612;-73
2022/04/06 06:17:55;;;;;;;6.95;6.25;;;9.00;99.90;;;;;;5048112;28;20585;-73
2022/04/06 06:20:22;;;;;;;6.80;6.10;;;9.10;99.90;;;;;;5049534;28;20212;-73
2022/04/06 06:22:48;;;;;;;6.68;5.82;;;9.00;99.90;;;;;;5047626;28;20215;-73
2022/04/06 06:25:15;;;;;;;6.50;5.90;;;9.00;99.90;;;;;;5048891;28;20220;-73
2022/04/06 06:27:43;;;;;;;8.15;5.90;;;9.00;99.90;;;;;;5047978;28;20208;-74
2022/04/06 06:30:14;;;;;;;5.82;5.30;;;9.10;99.90;;;;;;5048750;28;20236;-74
2022/04/06 06:32:41;;;;;;;6.00;5.40;;;9.20;99.90;;;;;;5048892;28;20694;-73
2022/04/06 06:35:09;;;;;;;8.50;5.30;;;9.20;99.90;;;;;;5049606;28;20225;-73
2022/04/06 06:37:36;;;;;;;6.05;5.45;;;9.20;99.90;;;;;;5048885;28;20209;-74
2022/04/06 06:40:04;;;;;;;5.63;5.10;;;9.20;99.90;;;;;;5049990;28;20209;-74
2022/04/06 06:42:31;;;;;;;6.32;5.63;;;9.20;99.90;;;;;;5048272;28;20255;-73
2022/04/06 06:44:58;;;;;;;5.80;5.07;;;9.20;99.90;;;;;;5049919;28;20201;-74
2022/04/06 06:47:26;;;;;;;5.45;4.95;;;9.30;99.90;;;;;;5048556;28;20217;-74
2022/04/06 06:49:53;;;;;;;5.82;5.00;;;9.30;99.90;;;;;;5049548;28;20197;-73
2022/04/06 06:52:19;;;;;;;6.55;5.72;;;9.30;99.90;;;;;;5049329;28;20224;-74
2022/04/06 06:54:46;;;;;;;6.30;4.75;;;9.40;99.90;;;;;;5049277;28;20259;-74
2022/04/06 06:57:13;;;;;;;5.00;4.50;;;9.40;99.90;;;;;;5048008;28;20229;-73
2022/04/06 06:59:41;;;;;;;5.18;4.40;;;9.40;99.90;;;;;;5049267;28;20204;-74
2022/04/06 07:02:08;;;;;;;4.90;4.40;;;9.50;99.90;;;;;;5049110;28;20197;-74
2022/04/06 07:04:36;;;;;;;5.22;4.72;;;9.50;99.90;;;;;;5049696;28;20200;-74
2022/04/06 07:07:03;;;;;;;4.43;4.10;;;9.40;99.90;;;;;;5048313;28;20225;-73
2022/04/06 07:09:30;;;;;;;4.22;3.83;;;9.50;99.90;;;;;;5049454;28;20197;-74
2022/04/06 07:11:57;;;;;;;4.22;3.83;;;9.50;99.90;;;;;;5048746;28;20201;-74
2022/04/06 07:14:23;;;;;;;5.53;4.93;;;9.60;99.90;;;;;;5049607;28;20217;-73
2022/04/06 07:16:50;;;;;;;4.50;4.10;;;9.60;99.90;;;;;;5048492;28;20240;-74
2022/04/06 07:19:17;;;;;;;5.40;4.38;;;9.60;99.90;;;;;;5051143;28;20652;-73
2022/04/06 07:21:46;;;;;;;4.30;3.90;;;9.60;99.90;;;;;;5052269;28;20209;-73
2022/04/06 07:24:12;;;;;;;4.60;4.18;;;9.70;99.90;;;;;;5053019;28;20193;-74
2022/04/06 07:26:39;;;;;;;3.95;3.65;;;9.70;99.90;;;;;;5051138;28;20601;-74
2022/04/06 07:29:06;;;;;;;4.60;3.50;;;9.80;99.90;;;;;;5053340;28;20323;-74
2022/04/06 07:31:33;;;;;;;3.65;3.28;;;9.80;99.90;;;;;;5052323;28;20204;-73
2022/04/06 07:33:59;;;;;;;4.57;3.75;;;9.90;99.90;;;;;;5053016;28;20229;-74
2022/04/06 07:36:26;;;;;;;4.13;3.72;;;9.90;99.90;;;;;;5051927;28;20252;-74
2022/04/06 07:38:54;;;;;;;3.60;3.30;;;10.00;99.90;;;;;;5052199;28;20209;-74
2022/04/06 07:41:24;;;;;;;3.58;3.28;;;10.10;99.90;;;;;;5051670;28;20205;-74
2022/04/06 07:43:51;;;;;;;4.68;3.38;;;10.20;99.90;;;;;;5053152;28;20193;-73
2022/04/06 07:46:18;;;;;;;3.38;2.85;;;10.30;99.90;;;;;;5052832;28;20221;-74
2022/04/06 07:48:44;;;;;;;4.07;2.97;;;10.50;99.90;;;;;;5051581;28;20220;-73
2022/04/06 07:51:11;;;;;;;2.85;2.65;;;10.70;99.90;;;;;;5052297;28;20205;-74
2022/04/06 07:53:38;;;;;;;6.53;2.50;;;10.90;99.90;;;;;;5052238;28;20217;-74
2022/04/06 07:56:07;;;;;;;2.42;2.20;;;11.30;99.90;;;;;;5052873;28;20221;-73
2022/04/06 07:58:34;;;;;;;3.55;2.22;;;11.70;99.90;;;;;;5051165;28;20205;-74
2022/04/06 08:01:02;;;;;;;2.83;2.28;;;11.90;99.90;;;;;;5052940;28;20607;-74
2022/04/06 08:03:29;;;;;;;2.25;1.67;;;12.10;99.90;;;;;;5051977;28;20207;-74
2022/04/06 08:05:57;;;;;;;2.30;2.10;;;12.20;99.90;;;;;;5052411;28;20225;-74
2022/04/06 08:08:23;;;;;;;2.85;2.38;;;12.00;99.90;;;;;;5051293;28;20239;-74
2022/04/06 08:10:50;;;;;;;3.47;2.20;;;11.90;99.90;;;;;;5052167;28;20608;-74
2022/04/06 08:13:18;;;;;;;2.53;2.33;;;11.90;99.90;;;;;;5051789;28;20212;-75
2022/04/06 08:15:45;;;;;;;2.90;2.40;;;11.70;99.90;;;;;;5051904;28;20225;-74
2022/04/06 08:18:11;;;;;;;2.47;2.28;;;11.60;99.90;;;;;;5047589;28;20258;-74
2022/04/06 08:20:38;;;;;;;1.95;1.75;;;11.70;99.90;;;;;;5052417;28;20193;-74
2022/04/06 08:23:05;;;;;;;3.25;2.58;;;11.60;99.90;;;;;;5051765;28;20703;-74
2022/04/06 08:25:33;;;;;;;2.33;1.85;;;11.40;99.90;;;;;;5052053;28;20235;-74
2022/04/06 08:28:00;;;;;;;2.35;2.10;;;11.20;99.90;;;;;;5051617;28;20205;-74
2022/04/06 08:30:28;;;;;;;2.92;1.92;;;11.30;99.90;;;;;;5051243;28;20213;-74
2022/04/06 08:32:58;;;;;;;2.92;2.20;;;11.30;99.90;;;;;;5051293;28;20220;-74
2022/04/06 08:35:25;;;;;;;2.10;1.90;;;11.60;99.90;;;;;;5050741;28;20367;-73
2022/04/06 08:37:52;;;;;;;2.20;2.00;;;11.80;99.90;;;;;;5050398;28;20288;-74
2022/04/06 08:40:19;;;;;;;1.83;1.65;;;11.90;99.90;;;;;;5051124;28;20668;-74
2022/04/06 08:42:47;;;;;;;1.88;1.73;;;12.50;99.90;;;;;;5049563;28;20197;-74
2022/04/06 08:45:16;;;;;;;1.98;1.70;;;12.80;99.90;;;;;;5051112;28;20247;-74
2022/04/06 08:47:47;;;;;;;1.40;1.30;;;12.80;99.90;;;;;;5049283;28;20288;-74
2022/04/06 08:50:16;;;;;;;1.40;1.30;;;12.90;99.90;;;;;;5050470;28;20205;-73
2022/04/06 08:52:43;;;;;;;1.63;1.30;;;13.10;99.90;;;;;;5050384;28;20196;-73
2022/04/06 08:55:11;;;;;;;1.60;1.33;;;13.30;99.90;;;;;;5050202;28;20224;-72
2022/04/06 08:57:38;;;;;;;1.70;1.50;;;13.60;99.90;;;;;;5049537;28;20663;-72
2022/04/06 09:00:06;;;;;;;1.70;1.50;;;13.60;99.90;;;;;;5033692;28;20189;-73
2022/04/06 09:02:32;;;;;;;1.30;1.03;;;13.80;99.90;;;;;;5030155;28;20495;-73
2022/04/06 09:05:03;;;;;;;2.37;1.10;;;14.20;99.90;;;;;;5029104;28;20467;-73
2022/04/06 09:07:32;;;;;;;2.00;1.20;;;14.20;99.90;;;;;;5029536;28;20515;-73
2022/04/06 09:10:00;;;;;;;1.47;1.20;;;14.10;99.90;;;;;;5030183;28;20214;-73
2022/04/06 09:12:28;;;;;;;2.30;2.10;;;14.00;99.90;;;;;;5029569;28;20461;-73
2022/04/06 09:15:05;;;;;;;1.30;1.20;;;14.60;99.90;;;;;;5030749;28;20496;-73
2022/04/06 09:17:32;;;;;;;1.13;0.97;;;15.70;97.70;;;;;;5028958;28;21010;-73
2022/04/06 09:20:00;;;;;;;0.93;0.80;;;15.30;97.00;;;;;;5029473;28;20476;-72
2022/04/06 09:22:29;;;;;;;1.50;1.07;;;15.00;98.10;;;;;;5040702;28;20491;-73
2022/04/06 09:24:58;;;;;;;1.47;1.10;;;14.50;98.10;;;;;;5049403;28;20471;-74
2022/04/06 09:27:31;;;;;;;1.10;1.00;;;14.30;98.20;;;;;;5048878;28;20479;-74
2022/04/06 09:29:58;;;;;;;1.10;1.00;;;14.20;98.50;;;;;;5050170;28;20798;-73
2022/04/06 09:32:25;;;;;;;1.20;0.90;;;13.90;98.30;;;;;;5049948;28;20549;-73
2022/04/06 09:34:52;;;;;;;1.90;1.20;;;13.70;98.80;;;;;;5048181;28;20570;-73
2022/04/06 09:37:24;;;;;;;1.40;1.23;;;13.80;98.60;;;;;;5050109;28;20483;-73
2022/04/06 09:39:51;;;;;;;2.55;1.33;;;13.70;99.10;;;;;;5049823;28;20459;-73
2022/04/06 09:42:22;;;;;;;1.80;1.17;;;13.60;99.00;;;;;;5048061;28;20201;-72
2022/04/06 09:47:40;;;;;;;1.57;1.47;;;14.30;98.50;;;;;;5048054;28;20612;-73
2022/04/06 09:50:12;;;;;;;1.53;1.10;;;15.00;97.80;;;;;;5049427;28;20489;-73
2022/04/06 09:52:40;;;;;;;4.57;1.40;;;15.90;96.80;;;;;;5048725;28;20460;-73
2022/04/06 09:55:09;;;;;;;1.30;1.10;;;16.70;95.50;;;;;;5049354;28;20490;-73
2022/04/06 09:57:42;;;;;;;1.40;1.10;;;17.10;94.80;;;;;;5048364;28;20885;-73
2022/04/06 10:00:11;;;;;;;1.17;0.97;;;17.00;95.10;;;;;;5048722;28;20562;-73
2022/04/06 10:02:38;;;;;;;1.10;1.00;;;16.50;94.90;;;;;;5049665;28;20464;-73
2022/04/06 10:05:07;;;;;;;2.13;1.13;;;16.00;95.10;;;;;;5048294;28;20466;-73
2022/04/06 10:07:34;;;;;;;1.30;1.10;;;15.70;95.70;;;;;;5049113;28;20463;-72
2022/04/06 10:10:03;;;;;;;6.10;1.03;;;15.50;95.90;;;;;;5049248;28;21018;-73
2022/04/06 10:12:30;;;;;;;1.50;1.20;;;15.20;95.90;;;;;;5047042;28;20466;-73
2022/04/06 10:15:00;;;;;;;1.50;1.00;;;15.30;96.00;;;;;;5049120;28;20529;-73
2022/04/06 10:17:28;;;;;;;1.37;1.00;;;15.60;95.60;;;;;;5048722;28;20480;-74
2022/04/06 10:20:07;;;;;;;1.50;1.13;;;15.40;95.70;;;;;;5048293;28;20884;-72
2022/04/06 10:22:45;;;;;;;1.10;0.90;;;15.20;96.10;;;;;;5049327;28;20480;-74
2022/04/06 10:25:18;;;;;;;2.10;1.33;;;15.10;96.30;;;;;;5048547;28;20509;-74
2022/04/06 10:27:51;;;;;;;1.30;1.00;;;15.40;97.10;;;;;;5047791;28;20455;-72
2022/04/06 10:30:20;;;;;;;1.80;1.10;;;16.90;95.70;;;;;;5049578;28;20467;-73
2022/04/06 10:32:49;;;;;;;1.63;1.00;;;18.60;93.30;;;;;;5048715;28;20895;-72
2022/04/06 10:35:21;;;;;;;1.47;1.20;;;19.50;91.70;;;;;;5048173;28;20511;-73
2022/04/06 10:38:14;;;;;;;1.33;1.17;;;18.90;91.50;;;;;;5047742;28;20467;-74
2022/04/06 10:41:09;;;;;;;1.03;0.90;;;19.00;91.60;;;;;;5048826;28;20491;-72
2022/04/06 10:43:52;;;;;;;1.03;0.90;;;18.60;91.40;;;;;;5039842;28;20466;-73
2022/04/06 10:46:33;;;;;;;1.30;0.97;;;17.90;91.40;;;;;;5049094;28;21002;-73
2022/04/06 10:49:12;;;;;;;1.20;1.10;;;18.00;91.40;;;;;;5047058;28;20459;-73
2022/04/06 10:51:41;;;;;;;1.03;0.90;;;18.60;91.60;;;;;;5049123;28;20455;-73
2022/04/06 10:54:39;;;;;;;1.73;1.23;;;19.50;91.00;;;;;;5051188;28;20454;-73
2022/04/06 10:57:07;;;;;;;1.10;1.00;;;20.40;89.20;;;;;;5052278;28;20490;-73
2022/04/06 10:59:34;;;;;;;2.50;1.10;;;20.20;88.20;;;;;;5052996;28;20470;-73
2022/04/06 11:02:19;;;;;;;1.67;1.13;;;19.80;89.70;;;;;;5051733;28;20467;-73
2022/04/06 11:04:46;;;;;;;2.10;1.33;;;20.60;90.30;;;;;;5051497;28;20458;-73
2022/04/06 11:07:15;;;;;;;1.30;1.10;;;21.80;85.90;;;;;;5052275;28;20488;-73
2022/04/06 11:12:30;;;;;;;1.93;1.00;;;22.30;84.60;;;;;;5051387;28;20445;-73
2022/04/06 11:15:19;;;;;;;3.37;1.03;;;22.00;86.50;;;;;;5051990;28;20490;-73
2022/04/06 11:17:48;;;;;;;3.67;1.17;;;21.70;86.30;;;;;;5051082;28;20513;-73
2022/04/06 11:20:16;;;;;;;0.90;0.80;;;21.80;83.90;;;;;;5052527;28;20470;-73
2022/04/06 11:22:45;;;;;;;1.60;1.00;;;21.50;84.80;;;;;;5051339;28;20868;-73
2022/04/06 11:25:13;;;;;;;1.87;0.90;;;21.40;85.00;;;;;;5051275;28;20463;-73
2022/04/06 11:27:43;;;;;;;1.37;1.00;;;21.80;85.10;;;;;;5050764;28;20463;-73
2022/04/06 11:30:13;;;;;;;1.10;0.90;;;23.10;83.80;;;;;;5046382;28;20472;-73
2022/04/06 11:32:40;;;;;;;1.27;1.00;;;23.60;81.90;;;;;;5031827;28;20464;-73
2022/04/06 11:35:08;;;;;;;1.40;1.10;;;24.80;81.20;;;;;;5031627;28;20484;-73
2022/04/06 11:37:41;;;;;;;1.03;0.83;;;24.70;77.90;;;;;;5031185;28;20459;-73
2022/04/06 11:40:09;;;;;;;1.80;1.03;;;25.20;76.90;;;;;;5031830;28;20492;-74
2022/04/06 11:42:35;;;;;;;1.20;0.97;;;25.30;73.40;;;;;;5032338;28;20460;-73
2022/04/06 11:45:04;;;;;;;1.10;0.90;;;24.70;74.50;;;;;;5031957;28;20464;-73
2022/04/06 11:47:32;;;;;;;1.20;1.10;;;23.80;75.20;;;;;;5031280;28;20479;-73
2022/04/06 11:49:59;;;;;;;1.87;0.90;;;23.10;76.30;;;;;;5031586;28;20469;-73
2022/04/06 11:52:26;;;;;;;1.00;0.90;;;22.60;77.10;;;;;;5031840;28;20960;-73
2022/04/06 11:54:54;;;;;;;1.00;0.90;;;21.90;77.30;;;;;;5031565;28;20492;-72
2022/04/06 11:57:21;;;;;;;1.27;0.90;;;20.50;78.40;;;;;;5033242;28;20843;-74
2022/04/06 11:59:55;;;;;;;1.07;0.97;;;20.20;80.40;;;;;;5051737;28;20459;-74
2022/04/06 12:02:23;;;;;;;0.97;0.87;;;20.70;80.50;;;;;;5051466;28;20466;-74
2022/04/06 12:05:00;;;;;;;1.53;0.80;;;20.90;79.40;;;;;;5050695;28;20467;-74
2022/04/06 12:07:27;;;;;;;1.73;0.80;;;21.40;78.60;;;;;;5038269;28;20499;-74
2022/04/06 12:09:54;;;;;;;3.33;1.40;;;21.60;79.30;;;;;;5050779;28;20455;-74
2022/04/06 12:12:22;;;;;;;1.10;0.90;;;21.20;79.00;;;;;;5051747;28;20470;-74
2022/04/06 12:14:49;;;;;;;1.97;0.83;;;20.80;80.20;;;;;;5051077;28;21176;-73
2022/04/06 12:17:16;;;;;;;2.30;1.00;;;20.30;80.20;;;;;;5050724;28;20881;-73
2022/04/06 12:19:44;;;;;;;2.57;1.30;;;20.40;79.40;;;;;;5051340;28;20463;-73
2022/04/06 12:22:11;;;;;;;1.00;0.90;;;21.40;80.50;;;;;;5048506;28;20915;-73
2022/04/06 12:24:39;;;;;;;1.20;0.90;;;22.50;78.20;;;;;;5051780;28;20487;-74
2022/04/06 12:27:06;;;;;;;1.30;0.90;;;23.20;74.60;;;;;;5050597;28;20483;-73
2022/04/06 12:29:35;;;;;;;1.47;0.90;;;23.70;74.30;;;;;;5051122;28;20491;-73
2022/04/06 12:32:03;;;;;;;1.53;1.17;;;24.40;75.20;;;;;;5051498;28;21048;-73
2022/04/06 12:34:35;;;;;;;6.27;1.50;;;24.30;74.00;;;;;;5051110;28;20467;-73
2022/04/06 12:39:50;;;;;;;1.60;0.97;;;23.70;74.40;;;;;;5049239;28;20452;-73
2022/04/06 12:42:18;;;;;;;1.03;0.93;;;23.00;74.30;;;;;;5051312;28;20499;-73
2022/04/06 12:44:56;;;;;;;1.10;1.00;;;23.20;77.00;;;;;;5051123;28;20481;-73
2022/04/06 12:47:24;;;;;;;1.60;1.37;;;23.80;75.70;;;;;;5050038;28;20470;-73
2022/04/06 12:49:51;;;;;;;1.10;0.90;;;24.10;73.20;;;;;;5050377;28;21237;-73
2022/04/06 12:52:20;;;;;;;1.30;1.00;;;24.30;74.80;;;;;;5051352;28;20463;-73
2022/04/06 12:54:49;;;;;;;6.43;1.70;;;24.80;72.10;;;;;;5047498;28;20957;-73
2022/04/06 12:57:18;;;;;;;2.23;1.20;;;24.70;72.10;;;;;;5050162;28;20940;-73
2022/04/06 12:59:48;;;;;;;1.00;0.80;;;24.80;73.90;;;;;;5050261;28;20529;-73
2022/04/06 13:02:26;;;;;;;2.37;1.40;;;24.50;73.60;;;;;;5050300;28;20555;-73
2022/04/06 13:04:55;;;;;;;1.63;1.00;;;24.50;74.60;;;;;;5049684;28;20467;-73
2022/04/06 13:07:23;;;;;;;1.90;0.90;;;24.10;72.50;;;;;;5049528;28;20574;-73
2022/04/06 13:09:52;;;;;;;2.70;0.90;;;23.80;72.70;;;;;;5050209;28;20972;-73